Brown Field Municipal Airport San Diego US
ICAO: KSDM
IATA: SDM
Category: Medium
Scheduled Services: No

Elevation: 526 ft
TransAlt. 18000 ft.

Airport Communications:
SOCAL APP:124.35
ATIS:132.35
CLNC DEL:124.4
CTAF:126.5
SOCAL DEP:125.15
GND:124.4
TWR:126.5
UNICOM:122.95

KSDM Zoom In..

Runways:

(A) RW 08L length 7972 ft width 150 ft
---- / hdg 82

(B) RW 08R length 3180 ft width 150 ft
---- / hdg 82

(C) RW 26L length 3180 ft width 150 ft
---- / hdg 262

(D) RW 26R length 7972 ft width 150 ft
---- / hdg 262

Location; KSDM
Day. 30 / Time. 19.53 Zulu
* Altimeter: 29.97
* Temperature: 22° c. 71.6°f.
* Wind from: 270° Speed 10 kn.
Dewpoint: 12° c.
Visibility: 10 Statute Miles.
Clouds: Clear (automated report).

KSDM 301953Z 27010KT 10SM CLR 22/12 A2997 RMK AO2 SLP144 T02220122


Wind From 270°
Speed 10 kn.

 
 
jpsmedia worldairports.se 2020   terms of use